PGUA/UAM METAR and TAF weather

Enter ICAO airport designator
Station Type Date Time Source
PGUA METAR 2021/01/17 18:56 UTC NOAA

PGUA 171856Z 10011KT 10SM FEW022 25/21 A2987 RMK AO2A SLP105 T02530205 $


Station Type Date Time Source
PGUA Decoded METAR 2021/01/17 18:56 UTC NOAA

Andersen, Mariana Is, Andersen Air Force Base, GU, United States (PGUA) 13-35N 144-56E 187M
Jan 17, 2021 - 01:56 PM EST / 2021.01.17 1856 UTC
Wind: from the E (100 degrees) at 13 MPH (11 KT):0
Visibility: 10 mile(s):0
Sky conditions: mostly clear
Temperature: 77.5 F (25.3 C)
Dew Point: 68.9 F (20.5 C)
Relative Humidity: 74%
Pressure (altimeter): 29.87 in. Hg (1011 hPa)
ob: PGUA 171856Z 10011KT 10SM FEW022 25/21 A2987 RMK AO2A SLP105 T02530205
cycle: 19

Station Type Date Time Source
PGUA TAF 2021/01/17 18:58 UTC NOAA

TAF PGUA 171800Z 1718/1824 10015G20KT 9999 SCT020 SCT080 QNH2981INS TX30/1802Z TN25/1816Z

Example: see airport list